Time;durP1;ratioP1;P1;durP2;ratioP2;P2;SDS_P1;SDS_P2;PMS_P1;PMS_P2;Temp;Humidity;BMP_temperature;BMP_pressure;BME280_temperature;BME280_humidity;BME280_pressure;Samples;Min_cycle;Max_cycle;Signal;HPM_P1;HPM_P2
2021/12/18 00:01:39;;;;;;;0.82;0.82;;;0.00;99.90;;;;;;5045952;23;20246;-76
2021/12/18 00:04:05;;;;;;;0.60;0.60;;;0.00;99.90;;;;;;5018588;28;20246;-75
2021/12/18 00:06:31;;;;;;;0.70;0.70;;;0.10;99.90;;;;;;5021899;28;20602;-76
2021/12/18 00:08:58;;;;;;;0.65;0.65;;;0.10;99.90;;;;;;5017165;28;20210;-76
2021/12/18 00:11:24;;;;;;;0.65;0.65;;;0.10;99.90;;;;;;5017534;28;20210;-75
2021/12/18 00:13:50;;;;;;;0.85;0.85;;;0.10;99.90;;;;;;5030629;23;20654;-69
2021/12/18 00:16:16;;;;;;;0.65;0.65;;;0.20;99.90;;;;;;5012226;28;20245;-68
2021/12/18 00:18:43;;;;;;;0.80;0.80;;;0.20;99.90;;;;;;5012042;28;20194;-68
2021/12/18 00:21:13;;;;;;;0.52;0.52;;;0.20;99.90;;;;;;5011728;28;20677;-68
2021/12/18 00:23:39;;;;;;;0.50;0.50;;;0.20;99.90;;;;;;5013252;28;20203;-68
2021/12/18 00:26:05;;;;;;;2.05;1.60;;;0.20;99.90;;;;;;5011978;28;20204;-68
2021/12/18 00:28:30;;;;;;;0.60;0.60;;;0.20;99.90;;;;;;5011923;28;20202;-69
2021/12/18 00:30:56;;;;;;;0.68;0.68;;;0.20;99.90;;;;;;5013167;28;20214;-69
2021/12/18 00:33:21;;;;;;;0.65;0.65;;;0.20;99.90;;;;;;5029608;28;20226;-69
2021/12/18 00:35:47;;;;;;;1.38;1.27;;;0.20;99.90;;;;;;5012841;28;20620;-68
2021/12/18 00:38:13;;;;;;;0.80;0.80;;;0.10;99.90;;;;;;5013090;28;20685;-68
2021/12/18 00:40:46;;;;;;;1.35;1.25;;;0.10;99.90;;;;;;5011601;28;20272;-68
2021/12/18 00:43:30;;;;;;;0.60;0.60;;;0.10;99.90;;;;;;5012995;28;20206;-68
2021/12/18 00:45:55;;;;;;;0.60;0.60;;;0.10;99.90;;;;;;5011419;28;20237;-68
2021/12/18 00:48:22;;;;;;;0.70;0.70;;;0.10;99.90;;;;;;5012657;28;20242;-68
2021/12/18 00:50:48;;;;;;;0.60;0.60;;;0.10;99.90;;;;;;5011518;28;20202;-68
2021/12/18 00:53:15;;;;;;;0.60;0.60;;;0.10;99.90;;;;;;5011296;28;20285;-69
2021/12/18 00:55:40;;;;;;;0.70;0.70;;;0.20;99.90;;;;;;5009946;28;20208;-68
2021/12/18 00:58:06;;;;;;;1.02;0.98;;;0.20;99.90;;;;;;5011494;28;20203;-68
2021/12/18 01:00:33;;;;;;;0.60;0.60;;;0.20;99.90;;;;;;5012344;28;20210;-68
2021/12/18 01:03:02;;;;;;;0.70;0.70;;;0.20;99.90;;;;;;5011397;28;20260;-68
2021/12/18 01:05:30;;;;;;;0.70;0.70;;;0.20;99.90;;;;;;5011027;28;20203;-68
2021/12/18 01:07:57;;;;;;;1.08;0.85;;;0.10;99.90;;;;;;5012395;28;20305;-68
2021/12/18 01:10:40;;;;;;;0.70;0.70;;;0.10;99.90;;;;;;5012161;28;20199;-68
2021/12/18 01:13:10;;;;;;;0.90;0.90;;;0.00;99.90;;;;;;5012562;28;20199;-68
2021/12/18 01:15:45;;;;;;;0.70;0.70;;;0.00;99.90;;;;;;5009274;28;20226;-68
2021/12/18 01:23:39;;;;;;;0.70;0.70;;;0.00;99.90;;;;;;5012805;28;20213;-68
2021/12/18 01:26:05;;;;;;;1.00;1.00;;;0.10;99.90;;;;;;5011098;28;20289;-68
2021/12/18 01:28:32;;;;;;;0.70;0.70;;;0.10;99.90;;;;;;5009669;28;20639;-68
2021/12/18 01:30:58;;;;;;;0.60;0.60;;;0.20;99.90;;;;;;5010944;28;20209;-68
2021/12/18 01:33:24;;;;;;;0.70;0.70;;;0.20;99.90;;;;;;5010721;28;20286;-68
2021/12/18 01:35:49;;;;;;;0.60;0.60;;;0.10;99.90;;;;;;5011684;28;20293;-68
2021/12/18 01:38:15;;;;;;;0.65;0.65;;;0.20;99.90;;;;;;5009517;28;20215;-69
2021/12/18 01:40:41;;;;;;;0.80;0.80;;;0.20;99.90;;;;;;5009453;28;20198;-68
2021/12/18 01:53:56;;;;;;;0.60;0.60;;;0.10;99.90;;;;;;4956806;28;20215;-68
2021/12/18 01:56:25;;;;;;;0.70;0.70;;;0.10;99.90;;;;;;5009520;28;20734;-68
2021/12/18 01:58:51;;;;;;;0.50;0.50;;;0.20;99.90;;;;;;5009821;28;20202;-68
2021/12/18 02:01:18;;;;;;;0.77;0.77;;;0.20;99.90;;;;;;5010923;28;20281;-68
2021/12/18 02:03:45;;;;;;;0.75;0.75;;;0.20;99.90;;;;;;5011961;28;20229;-69
2021/12/18 02:06:12;;;;;;;0.70;0.70;;;0.20;99.90;;;;;;5010325;28;20253;-68
2021/12/18 02:08:39;;;;;;;0.70;0.70;;;0.20;99.90;;;;;;5011402;28;20334;-68
2021/12/18 02:14:06;;;;;;;0.60;0.60;;;0.30;99.90;;;;;;5011302;28;20237;-68
2021/12/18 02:22:08;;;;;;;0.75;0.75;;;0.20;99.90;;;;;;5010308;28;20202;-68
2021/12/18 02:24:34;;;;;;;0.98;0.98;;;0.20;99.90;;;;;;5011302;28;20205;-68
2021/12/18 02:26:59;;;;;;;0.73;0.73;;;0.10;99.90;;;;;;5010351;28;20460;-68
2021/12/18 02:29:29;;;;;;;0.88;0.88;;;0.00;99.90;;;;;;5011322;28;20296;-68
2021/12/18 02:31:55;;;;;;;0.93;0.93;;;0.00;99.90;;;;;;5010194;28;20210;-72
2021/12/18 02:34:27;;;;;;;1.00;1.00;;;0.00;99.90;;;;;;5011578;28;20199;-68
2021/12/18 02:36:58;;;;;;;1.70;1.60;;;0.00;99.90;;;;;;5007542;28;20335;-68
2021/12/18 02:39:41;;;;;;;0.70;0.70;;;-0.10;99.90;;;;;;5009140;28;20230;-68
2021/12/18 02:42:25;;;;;;;1.25;1.17;;;0.00;99.90;;;;;;5009756;28;20206;-69
2021/12/18 02:44:52;;;;;;;1.17;1.10;;;0.00;99.90;;;;;;4993524;28;20203;-68
2021/12/18 02:47:17;;;;;;;1.08;1.08;;;0.00;99.90;;;;;;5010119;28;20230;-68
2021/12/18 02:49:49;;;;;;;1.00;1.00;;;-0.10;99.90;;;;;;5010592;28;20589;-68
2021/12/18 02:52:16;;;;;;;1.05;1.05;;;-0.10;99.90;;;;;;5025797;28;20198;-69
2021/12/18 02:54:42;;;;;;;0.93;0.93;;;0.00;99.90;;;;;;5015373;28;20207;-68
2021/12/18 02:57:09;;;;;;;0.65;0.65;;;-0.10;99.90;;;;;;5014947;28;20229;-68
2021/12/18 02:59:52;;;;;;;2.55;1.33;;;-0.10;99.90;;;;;;5013463;28;20203;-69
2021/12/18 03:02:20;;;;;;;17.38;3.10;;;-0.10;99.90;;;;;;5011255;28;20202;-68
2021/12/18 03:04:51;;;;;;;0.82;0.82;;;-0.10;99.90;;;;;;5014887;28;20289;-69
2021/12/18 03:07:19;;;;;;;2.58;2.03;;;-0.10;99.90;;;;;;5015906;28;20677;-69
2021/12/18 03:25:23;;;;;;;0.80;0.80;;;-0.10;99.90;;;;;;5013449;28;20206;-68
2021/12/18 03:27:50;;;;;;;0.80;0.80;;;-0.10;99.90;;;;;;5014571;28;20290;-68
2021/12/18 03:30:16;;;;;;;1.00;1.00;;;-0.10;99.90;;;;;;5011964;28;20281;-68
2021/12/18 03:32:43;;;;;;;1.00;0.95;;;-0.20;99.90;;;;;;5012956;28;20284;-68
2021/12/18 03:35:10;;;;;;;0.80;0.80;;;-0.20;99.90;;;;;;5012773;28;20207;-68
2021/12/18 03:37:36;;;;;;;0.80;0.80;;;-0.20;99.90;;;;;;5012713;28;20689;-68
2021/12/18 03:40:08;;;;;;;0.63;0.63;;;-0.30;99.90;;;;;;5013050;28;20199;-68
2021/12/18 03:42:34;;;;;;;1.42;1.33;;;-0.30;99.90;;;;;;5013992;28;20203;-68
2021/12/18 03:44:59;;;;;;;3.25;2.17;;;-0.30;99.90;;;;;;5014279;28;20203;-68
2021/12/18 03:47:25;;;;;;;0.70;0.70;;;-0.40;99.90;;;;;;5013790;28;20290;-68
2021/12/18 03:49:51;;;;;;;12.20;1.52;;;-0.30;99.90;;;;;;5011806;28;20203;-68
2021/12/18 03:52:17;;;;;;;0.70;0.70;;;-0.30;99.90;;;;;;5014089;28;20214;-68
2021/12/18 03:54:43;;;;;;;0.70;0.70;;;-0.40;99.90;;;;;;5012580;28;20210;-68
2021/12/18 03:57:09;;;;;;;0.70;0.70;;;-0.40;99.90;;;;;;5011252;28;20232;-68
2021/12/18 03:59:35;;;;;;;0.50;0.50;;;-0.30;99.90;;;;;;5013773;28;20563;-68
2021/12/18 04:02:00;;;;;;;0.80;0.80;;;-0.40;99.90;;;;;;5010352;28;20227;-68
2021/12/18 04:04:26;;;;;;;0.60;0.60;;;-0.30;99.90;;;;;;5010577;28;20232;-68
2021/12/18 04:06:52;;;;;;;0.73;0.73;;;-0.30;99.90;;;;;;5013869;28;20194;-68
2021/12/18 04:09:18;;;;;;;0.70;0.70;;;-0.20;99.90;;;;;;5011732;28;20573;-69
2021/12/18 04:11:44;;;;;;;0.70;0.70;;;-0.10;99.90;;;;;;5013737;28;20670;-70
2021/12/18 04:14:12;;;;;;;0.70;0.70;;;0.00;99.90;;;;;;5012015;28;20237;-68
2021/12/18 04:16:37;;;;;;;1.20;1.20;;;0.10;99.90;;;;;;5012086;28;20207;-69
2021/12/18 04:19:04;;;;;;;0.70;0.70;;;0.10;99.90;;;;;;5012778;28;20203;-68
2021/12/18 04:21:32;;;;;;;0.70;0.70;;;0.10;99.90;;;;;;5012011;28;20206;-68
2021/12/18 04:23:59;;;;;;;0.63;0.63;;;0.10;99.90;;;;;;5012135;28;20198;-68
2021/12/18 04:26:25;;;;;;;0.70;0.70;;;0.10;99.90;;;;;;5013359;28;20257;-68
2021/12/18 04:28:51;;;;;;;0.70;0.70;;;0.10;99.90;;;;;;5013238;28;20210;-68
2021/12/18 04:31:17;;;;;;;1.35;1.10;;;0.00;99.90;;;;;;5010736;28;20206;-68
2021/12/18 04:33:43;;;;;;;0.70;0.70;;;0.00;99.90;;;;;;5013195;28;20396;-68
2021/12/18 04:36:09;;;;;;;0.80;0.80;;;-0.10;99.90;;;;;;5012514;28;20202;-68
2021/12/18 04:38:35;;;;;;;0.80;0.80;;;-0.10;99.90;;;;;;5013030;28;20229;-68
2021/12/18 04:41:02;;;;;;;0.70;0.70;;;-0.10;99.90;;;;;;5013029;28;20274;-68
2021/12/18 04:43:28;;;;;;;0.60;0.60;;;-0.10;99.90;;;;;;5012756;28;20194;-68
2021/12/18 04:45:54;;;;;;;0.70;0.70;;;-0.10;99.90;;;;;;5011844;28;20337;-68
2021/12/18 04:48:19;;;;;;;0.70;0.70;;;-0.10;99.90;;;;;;5010187;28;20333;-69
2021/12/18 04:50:45;;;;;;;0.68;0.68;;;-0.10;99.90;;;;;;5012981;28;20221;-69
2021/12/18 04:53:11;;;;;;;0.80;0.80;;;-0.10;99.90;;;;;;5011633;28;20202;-68
2021/12/18 04:55:37;;;;;;;0.80;0.80;;;-0.20;99.90;;;;;;5011444;28;20207;-68
2021/12/18 04:58:03;;;;;;;0.65;0.65;;;-0.20;99.90;;;;;;5011055;28;20226;-69
2021/12/18 05:00:40;;;;;;;0.80;0.80;;;-0.20;99.90;;;;;;5012514;28;20203;-68
2021/12/18 05:03:11;;;;;;;0.70;0.70;;;-0.10;99.90;;;;;;5011317;28;20205;-71
2021/12/18 05:05:36;;;;;;;0.80;0.80;;;-0.20;99.90;;;;;;5012468;28;20207;-68
2021/12/18 05:08:06;;;;;;;0.82;0.82;;;-0.20;99.90;;;;;;5011204;28;20213;-68
2021/12/18 05:10:32;;;;;;;0.70;0.70;;;-0.20;99.90;;;;;;5012355;28;20586;-68
2021/12/18 05:12:58;;;;;;;0.85;0.85;;;-0.30;99.90;;;;;;5009889;28;20658;-68
2021/12/18 05:15:25;;;;;;;0.70;0.70;;;-0.30;99.90;;;;;;5011402;28;20603;-68
2021/12/18 05:17:51;;;;;;;0.95;0.95;;;-0.30;99.90;;;;;;5012400;28;20272;-68
2021/12/18 05:20:17;;;;;;;0.70;0.70;;;-0.30;99.90;;;;;;5011027;28;20202;-68
2021/12/18 05:22:43;;;;;;;0.70;0.70;;;-0.20;99.90;;;;;;5009498;28;20551;-68
2021/12/18 05:25:09;;;;;;;0.80;0.80;;;-0.10;99.90;;;;;;5010964;28;20199;-68
2021/12/18 05:27:36;;;;;;;0.60;0.60;;;-0.10;99.90;;;;;;5010765;28;20214;-68
2021/12/18 05:30:04;;;;;;;0.68;0.68;;;-0.10;99.90;;;;;;5010944;28;20198;-68
2021/12/18 05:32:29;;;;;;;0.60;0.60;;;0.10;99.90;;;;;;5010592;28;20261;-68
2021/12/18 05:34:55;;;;;;;0.80;0.80;;;0.10;99.90;;;;;;5012016;28;20202;-68
2021/12/18 05:39:50;;;;;;;0.70;0.70;;;-0.10;99.90;;;;;;5012231;28;20203;-68
2021/12/18 05:42:16;;;;;;;0.70;0.70;;;-0.10;99.90;;;;;;5012090;28;20209;-68
2021/12/18 05:44:41;;;;;;;0.77;0.77;;;-0.30;99.90;;;;;;5010587;28;20198;-70
2021/12/18 05:47:07;;;;;;;0.70;0.70;;;-0.40;99.90;;;;;;5008300;28;20208;-68
2021/12/18 05:49:33;;;;;;;0.68;0.68;;;-0.50;99.90;;;;;;5009166;28;20682;-68
2021/12/18 05:51:59;;;;;;;0.82;0.80;;;-0.50;99.90;;;;;;5010707;28;20207;-68
2021/12/18 05:54:25;;;;;;;0.93;0.93;;;-0.60;99.90;;;;;;5026814;28;20298;-72
2021/12/18 05:56:51;;;;;;;0.98;0.98;;;-0.60;99.90;;;;;;5009625;28;20265;-68
2021/12/18 05:59:17;;;;;;;1.33;1.23;;;-0.60;99.90;;;;;;5010499;28;20202;-68
2021/12/18 06:01:43;;;;;;;1.65;1.00;;;-0.70;99.90;;;;;;5010189;28;20616;-68
2021/12/18 06:04:09;;;;;;;2.05;1.65;;;-0.80;99.90;;;;;;5010353;28;20202;-68
2021/12/18 06:06:35;;;;;;;1.05;1.05;;;-0.80;99.90;;;;;;5022855;28;20257;-68
2021/12/18 06:09:00;;;;;;;0.77;0.77;;;-0.80;99.90;;;;;;5010381;28;20217;-68
2021/12/18 06:11:28;;;;;;;0.70;0.70;;;-0.80;99.90;;;;;;5010057;28;20211;-68
2021/12/18 06:13:54;;;;;;;1.30;1.20;;;-0.90;99.90;;;;;;5008788;28;20629;-68
2021/12/18 06:16:21;;;;;;;0.70;0.70;;;-0.90;99.90;;;;;;5009810;28;20230;-68
2021/12/18 06:18:50;;;;;;;0.80;0.80;;;-1.00;99.90;;;;;;5010186;28;20238;-69
2021/12/18 06:21:17;;;;;;;2.45;2.25;;;-1.00;99.90;;;;;;5010481;28;20195;-69
2021/12/18 06:23:46;;;;;;;0.88;0.88;;;-1.00;99.90;;;;;;5008963;28;20199;-68
2021/12/18 06:26:14;;;;;;;0.70;0.70;;;-1.00;99.90;;;;;;5011493;28;20195;-68
2021/12/18 06:28:40;;;;;;;0.70;0.70;;;-1.00;99.90;;;;;;5010997;28;20226;-68
2021/12/18 06:31:06;;;;;;;0.60;0.60;;;-0.90;99.90;;;;;;5011413;28;20696;-69
2021/12/18 06:33:32;;;;;;;1.20;0.90;;;-0.80;99.90;;;;;;5012428;28;20206;-72
2021/12/18 06:35:58;;;;;;;0.80;0.80;;;-0.80;99.90;;;;;;5009743;28;20203;-68
2021/12/18 06:38:24;;;;;;;0.65;0.65;;;-0.90;99.90;;;;;;5011255;28;20668;-69
2021/12/18 06:40:51;;;;;;;0.98;0.98;;;-0.90;99.90;;;;;;5009997;28;20199;-68
2021/12/18 06:43:16;;;;;;;0.88;0.88;;;-0.90;99.90;;;;;;5011433;28;20282;-69
2021/12/18 06:45:42;;;;;;;0.80;0.80;;;-1.00;99.90;;;;;;5011504;28;20338;-68
2021/12/18 06:48:08;;;;;;;0.90;0.90;;;-1.00;99.90;;;;;;5011180;28;20209;-67
2021/12/18 06:50:35;;;;;;;1.02;1.00;;;-1.10;99.90;;;;;;5009688;28;20297;-68
2021/12/18 06:53:01;;;;;;;1.05;1.05;;;-1.20;99.90;;;;;;5010067;28;20261;-68
2021/12/18 06:55:28;;;;;;;1.35;1.25;;;-1.20;99.90;;;;;;5011134;28;20199;-68
2021/12/18 06:57:53;;;;;;;0.90;0.90;;;-1.20;99.90;;;;;;5009865;28;20221;-68
2021/12/18 07:00:20;;;;;;;2.92;2.67;;;-1.30;99.90;;;;;;5009710;28;20627;-69
2021/12/18 07:02:47;;;;;;;1.00;0.93;;;-1.40;99.90;;;;;;5009757;28;20205;-69
2021/12/18 07:05:13;;;;;;;1.88;1.75;;;-1.40;99.90;;;;;;5011057;28;20700;-68
2021/12/18 07:07:39;;;;;;;3.10;1.55;;;-1.40;99.90;;;;;;5009613;28;20556;-68
2021/12/18 07:10:07;;;;;;;2.25;1.30;;;-1.40;99.90;;;;;;5009793;28;20678;-69
2021/12/18 07:12:34;;;;;;;0.73;0.73;;;-1.40;99.90;;;;;;5010836;28;20634;-68
2021/12/18 07:15:00;;;;;;;0.70;0.70;;;-1.50;99.90;;;;;;5010799;28;20662;-68
2021/12/18 07:17:26;;;;;;;0.70;0.70;;;-1.50;99.90;;;;;;5010770;28;20218;-68
2021/12/18 07:19:52;;;;;;;0.70;0.70;;;-1.50;99.90;;;;;;5010800;28;20203;-68
2021/12/18 07:22:17;;;;;;;0.75;0.75;;;-1.50;99.90;;;;;;5010798;28;20206;-68
2021/12/18 07:24:43;;;;;;;1.35;1.25;;;-1.60;99.90;;;;;;5009789;28;20207;-68
2021/12/18 07:27:09;;;;;;;1.10;1.10;;;-1.60;99.90;;;;;;5010714;28;20571;-68
2021/12/18 07:29:34;;;;;;;0.80;0.80;;;-1.50;99.90;;;;;;5009363;28;20314;-68
2021/12/18 07:32:00;;;;;;;0.70;0.70;;;-1.50;99.90;;;;;;5010713;28;20206;-68
2021/12/18 07:34:26;;;;;;;0.70;0.70;;;-1.40;99.90;;;;;;5009340;28;20218;-69
2021/12/18 07:36:52;;;;;;;0.80;0.80;;;-1.40;99.90;;;;;;5009252;28;20261;-70
2021/12/18 07:39:19;;;;;;;0.80;0.80;;;-1.30;99.90;;;;;;5009581;28;20274;-70
2021/12/18 07:41:44;;;;;;;0.75;0.75;;;-1.30;99.90;;;;;;5014299;28;20203;-69
2021/12/18 07:44:10;;;;;;;1.48;1.38;;;-1.40;99.90;;;;;;5014518;28;20214;-69
2021/12/18 07:46:38;;;;;;;0.80;0.80;;;-1.40;99.90;;;;;;5012695;28;20237;-68
2021/12/18 07:49:06;;;;;;;0.70;0.70;;;-1.30;99.90;;;;;;5012732;28;20207;-68
2021/12/18 07:51:32;;;;;;;0.63;0.63;;;-1.20;99.90;;;;;;5012633;28;20349;-69
2021/12/18 07:53:58;;;;;;;0.70;0.70;;;-1.20;99.90;;;;;;5012769;28;20573;-68
2021/12/18 07:56:24;;;;;;;0.80;0.80;;;-1.10;99.90;;;;;;5012367;28;20202;-68
2021/12/18 07:58:51;;;;;;;0.75;0.75;;;-1.10;99.90;;;;;;5012630;28;20207;-67
2021/12/18 08:01:16;;;;;;;0.70;0.70;;;-1.10;99.90;;;;;;5013902;28;20571;-69
2021/12/18 08:03:42;;;;;;;0.60;0.60;;;-1.10;99.90;;;;;;5013611;28;20211;-68
2021/12/18 08:06:08;;;;;;;0.73;0.73;;;-1.10;99.90;;;;;;5012374;28;20761;-68
2021/12/18 08:08:34;;;;;;;0.73;0.73;;;-1.10;99.90;;;;;;5012197;28;20199;-67
2021/12/18 08:11:00;;;;;;;0.80;0.80;;;-1.10;99.90;;;;;;5013773;28;20199;-68
2021/12/18 08:13:25;;;;;;;0.73;0.73;;;-1.20;99.90;;;;;;5013487;28;20211;-68
2021/12/18 08:15:51;;;;;;;1.02;1.02;;;-1.20;99.90;;;;;;5012070;28;20669;-68
2021/12/18 08:18:17;;;;;;;0.70;0.70;;;-1.30;99.90;;;;;;5013569;28;20277;-68
2021/12/18 08:20:42;;;;;;;1.20;1.10;;;-1.30;99.90;;;;;;5010957;28;20207;-67
2021/12/18 08:23:08;;;;;;;1.13;1.13;;;-1.20;99.90;;;;;;5013436;28;20256;-67
2021/12/18 08:25:35;;;;;;;1.85;1.70;;;-1.30;99.90;;;;;;5010757;28;20203;-68
2021/12/18 08:28:02;;;;;;;0.70;0.70;;;-1.30;99.90;;;;;;5013384;28;20229;-68
2021/12/18 08:30:31;;;;;;;0.70;0.70;;;-1.20;99.90;;;;;;5011646;28;20233;-68
2021/12/18 08:33:00;;;;;;;0.63;0.63;;;-1.00;99.90;;;;;;5011913;28;20202;-67
2021/12/18 08:35:30;;;;;;;0.70;0.70;;;-0.90;99.90;;;;;;5011707;28;20686;-68
2021/12/18 08:37:56;;;;;;;0.60;0.60;;;-0.80;99.90;;;;;;5013075;28;20210;-68
2021/12/18 08:40:23;;;;;;;0.70;0.70;;;-0.70;99.90;;;;;;5010625;28;20557;-68
2021/12/18 08:42:49;;;;;;;0.70;0.70;;;-0.70;99.90;;;;;;5013078;28;20308;-69
2021/12/18 08:45:15;;;;;;;0.90;0.90;;;-0.60;99.90;;;;;;5010541;28;20293;-68
2021/12/18 08:47:42;;;;;;;0.68;0.68;;;-0.60;99.90;;;;;;5012900;28;20233;-68
2021/12/18 08:50:10;;;;;;;0.70;0.70;;;-0.60;99.90;;;;;;5011963;28;20202;-68
2021/12/18 08:52:37;;;;;;;0.63;0.63;;;-0.60;99.90;;;;;;5012706;28;20569;-68
2021/12/18 08:55:04;;;;;;;0.70;0.70;;;-0.50;99.90;;;;;;5012040;28;20282;-68
2021/12/18 08:57:30;;;;;;;0.70;0.70;;;-0.60;99.90;;;;;;5012452;28;20210;-69
2021/12/18 08:59:56;;;;;;;0.73;0.73;;;-0.60;99.90;;;;;;5011953;28;20673;-68
2021/12/18 09:02:22;;;;;;;0.80;0.80;;;-0.70;99.90;;;;;;5012287;28;20207;-69
2021/12/18 09:04:48;;;;;;;0.70;0.70;;;-0.70;99.90;;;;;;5012746;28;20209;-68
2021/12/18 09:07:14;;;;;;;0.80;0.80;;;-0.80;99.90;;;;;;5012690;28;20681;-68
2021/12/18 09:09:40;;;;;;;1.15;1.15;;;-0.90;99.90;;;;;;5011146;28;20237;-68
2021/12/18 09:12:10;;;;;;;1.42;1.33;;;-1.00;99.90;;;;;;5012498;28;20628;-68
2021/12/18 09:14:36;;;;;;;1.20;1.20;;;-1.00;99.90;;;;;;5009623;28;20266;-68
2021/12/18 09:17:02;;;;;;;0.77;0.77;;;-1.10;99.90;;;;;;5012284;28;20246;-68
2021/12/18 09:19:28;;;;;;;1.38;1.27;;;-1.20;99.90;;;;;;5009722;28;20241;-68
2021/12/18 09:21:55;;;;;;;1.13;1.05;;;-1.20;99.90;;;;;;5011147;28;20207;-68
2021/12/18 09:24:21;;;;;;;1.40;1.30;;;-1.30;99.90;;;;;;5010756;28;20665;-68
2021/12/18 09:26:47;;;;;;;1.15;1.10;;;-1.30;99.90;;;;;;5012400;28;20214;-68
2021/12/18 09:29:13;;;;;;;0.90;0.90;;;-1.30;99.90;;;;;;5010774;28;20728;-68
2021/12/18 09:31:39;;;;;;;2.55;2.08;;;-1.40;99.90;;;;;;5011829;28;20214;-68
2021/12/18 09:34:05;;;;;;;3.22;1.35;;;-1.50;99.90;;;;;;5010791;28;20198;-68
2021/12/18 09:36:30;;;;;;;1.58;1.48;;;-1.50;99.90;;;;;;5011685;28;20211;-68
2021/12/18 09:38:56;;;;;;;2.80;1.58;;;-1.50;99.90;;;;;;5011986;28;20199;-68
2021/12/18 09:41:24;;;;;;;0.77;0.77;;;-1.40;99.90;;;;;;5011814;28;20203;-68
2021/12/18 09:43:50;;;;;;;0.75;0.75;;;-1.40;99.90;;;;;;5012048;28;20199;-68
2021/12/18 09:46:16;;;;;;;1.15;1.00;;;-1.30;99.90;;;;;;5010855;28;20245;-68
2021/12/18 09:48:43;;;;;;;1.70;1.50;;;-1.30;99.90;;;;;;5011766;28;20203;-69
2021/12/18 09:51:18;;;;;;;3.25;2.45;;;-1.30;99.90;;;;;;5010880;28;20206;-68
2021/12/18 09:53:44;;;;;;;1.67;1.58;;;-1.40;99.90;;;;;;5010832;28;20237;-67
2021/12/18 09:56:10;;;;;;;2.08;1.95;;;-1.40;99.90;;;;;;5011746;28;20206;-68
2021/12/18 09:58:35;;;;;;;0.70;0.70;;;-1.40;99.90;;;;;;5010338;28;20226;-68
2021/12/18 10:01:02;;;;;;;0.73;0.73;;;-1.20;99.90;;;;;;5011286;28;20245;-68
2021/12/18 10:03:49;;;;;;;0.70;0.70;;;-1.20;99.90;;;;;;5011006;28;20207;-67
2021/12/18 10:06:41;;;;;;;0.85;0.85;;;-1.10;99.90;;;;;;5011755;28;20206;-68
2021/12/18 10:09:09;;;;;;;0.80;0.80;;;-1.00;99.90;;;;;;5011008;28;20210;-68
2021/12/18 10:11:45;;;;;;;9.43;1.65;;;-1.00;99.90;;;;;;5011308;28;20210;-69
2021/12/18 10:14:11;;;;;;;1.10;1.10;;;-1.00;99.90;;;;;;5011794;28;20300;-69
2021/12/18 10:16:46;;;;;;;0.70;0.70;;;-1.00;99.90;;;;;;5008651;28;20646;-68
2021/12/18 10:19:35;;;;;;;1.02;1.00;;;-1.00;99.90;;;;;;5010191;28;20209;-68
2021/12/18 10:22:07;;;;;;;0.70;0.70;;;-1.10;99.90;;;;;;5011466;28;20245;-68
2021/12/18 10:24:35;;;;;;;0.80;0.80;;;-1.20;99.90;;;;;;5009726;28;20203;-68
2021/12/18 10:27:14;;;;;;;0.80;0.80;;;-1.10;99.90;;;;;;5011134;28;20210;-69
2021/12/18 10:29:40;;;;;;;0.77;0.77;;;-1.10;99.90;;;;;;5010887;28;20225;-69
2021/12/18 10:32:12;;;;;;;0.90;0.82;;;-1.00;99.90;;;;;;5010224;28;20711;-67
2021/12/18 10:34:39;;;;;;;0.70;0.70;;;-0.90;99.90;;;;;;5011000;28;20215;-68
2021/12/18 10:37:18;;;;;;;1.27;0.90;;;-0.90;99.90;;;;;;5009674;28;20690;-67
2021/12/18 10:39:58;;;;;;;1.00;1.00;;;-0.90;99.90;;;;;;5009920;28;20199;-68
2021/12/18 10:42:24;;;;;;;0.93;0.93;;;-1.00;99.90;;;;;;5010858;28;20202;-68
2021/12/18 10:45:03;;;;;;;0.90;0.90;;;-1.00;99.90;;;;;;5008533;28;20702;-68
2021/12/18 10:47:50;;;;;;;0.90;0.90;;;-1.10;99.90;;;;;;5009781;28;20684;-68
2021/12/18 10:50:19;;;;;;;6.43;3.65;;;-1.10;99.90;;;;;;5011049;28;20234;-68
2021/12/18 10:52:51;;;;;;;3.90;3.47;;;-1.10;99.90;;;;;;5010148;28;20203;-69
2021/12/18 10:55:16;;;;;;;2.75;2.55;;;-1.10;99.90;;;;;;5010205;28;20630;-67
2021/12/18 10:57:53;;;;;;;0.90;0.90;;;-1.10;99.90;;;;;;5009769;28;20211;-67
2021/12/18 11:00:45;;;;;;;3.70;3.35;;;-1.10;99.90;;;;;;5010194;28;20205;-68
2021/12/18 11:03:21;;;;;;;2.08;1.75;;;-1.10;99.90;;;;;;5010933;28;20581;-69
2021/12/18 11:06:06;;;;;;;1.38;1.25;;;-1.10;99.90;;;;;;5010700;28;20203;-68
2021/12/18 11:08:33;;;;;;;1.02;1.02;;;-1.00;99.90;;;;;;4994393;28;20685;-68
2021/12/18 11:13:52;;;;;;;0.77;0.77;;;-0.80;99.90;;;;;;4995156;28;20238;-68
2021/12/18 11:16:19;;;;;;;1.25;1.20;;;-0.80;99.90;;;;;;5012452;28;20270;-69
2021/12/18 11:18:46;;;;;;;4.47;2.53;;;-0.70;99.90;;;;;;5013403;28;20705;-68
2021/12/18 11:21:13;;;;;;;0.93;0.93;;;-0.70;99.90;;;;;;5014591;28;20662;-68
2021/12/18 11:23:42;;;;;;;0.65;0.65;;;-0.60;99.90;;;;;;5014592;28;20241;-68
2021/12/18 11:26:13;;;;;;;0.80;0.80;;;-0.50;99.90;;;;;;5014405;28;20214;-69
2021/12/18 11:28:43;;;;;;;0.75;0.75;;;-0.40;99.90;;;;;;5014778;28;20202;-68
2021/12/18 11:31:10;;;;;;;1.15;1.08;;;-0.30;99.90;;;;;;5014788;28;20237;-68
2021/12/18 11:33:37;;;;;;;1.60;1.50;;;-0.20;99.90;;;;;;5014425;28;20645;-68
2021/12/18 11:36:04;;;;;;;0.70;0.70;;;-0.10;99.90;;;;;;5012799;28;20215;-68
2021/12/18 11:38:33;;;;;;;2.88;1.45;;;0.00;99.90;;;;;;5012911;28;20662;-68
2021/12/18 11:41:00;;;;;;;1.15;1.05;;;0.00;99.90;;;;;;5012700;28;20207;-68
2021/12/18 11:43:37;;;;;;;0.60;0.60;;;0.10;99.90;;;;;;5012631;28;20277;-68
2021/12/18 11:46:39;;;;;;;0.60;0.60;;;0.20;99.90;;;;;;5012645;28;20213;-68
2021/12/18 11:49:08;;;;;;;2.15;1.33;;;0.60;99.90;;;;;;5009774;28;20215;-68
2021/12/18 11:51:35;;;;;;;0.65;0.65;;;0.80;99.90;;;;;;5013742;28;20210;-68
2021/12/18 11:54:06;;;;;;;0.60;0.60;;;0.80;99.90;;;;;;5013757;28;20207;-68
2021/12/18 11:56:49;;;;;;;0.60;0.60;;;0.80;99.90;;;;;;5012109;28;20709;-68
2021/12/18 11:59:35;;;;;;;1.08;1.08;;;0.70;99.90;;;;;;5028596;28;20203;-68
2021/12/18 12:02:00;;;;;;;0.70;0.70;;;0.70;99.90;;;;;;5012475;28;20225;-68
2021/12/18 12:04:26;;;;;;;0.60;0.60;;;0.60;99.90;;;;;;5012140;28;20203;-68
2021/12/18 12:06:52;;;;;;;0.60;0.60;;;0.50;99.90;;;;;;5012157;28;20542;-68
2021/12/18 12:09:38;;;;;;;0.93;0.93;;;0.50;99.90;;;;;;5012233;28;20273;-68
2021/12/18 12:12:09;;;;;;;1.40;1.30;;;0.40;99.90;;;;;;5012826;28;20345;-68
2021/12/18 12:14:39;;;;;;;1.27;1.23;;;0.40;99.90;;;;;;5012120;28;20250;-68
2021/12/18 12:17:05;;;;;;;1.38;1.27;;;0.40;99.90;;;;;;5010696;28;20222;-68
2021/12/18 12:19:33;;;;;;;0.80;0.80;;;0.30;99.90;;;;;;5012961;28;20206;-68
2021/12/18 12:22:01;;;;;;;2.17;1.77;;;0.30;99.90;;;;;;5011667;28;20199;-68
2021/12/18 12:24:29;;;;;;;1.33;1.23;;;0.30;99.90;;;;;;5011985;28;20760;-68
2021/12/18 12:27:24;;;;;;;0.77;0.77;;;0.30;99.90;;;;;;5010025;28;20215;-68
2021/12/18 12:29:50;;;;;;;2.67;1.42;;;0.30;99.90;;;;;;5013176;28;20211;-68
2021/12/18 12:32:16;;;;;;;0.60;0.60;;;0.40;99.90;;;;;;5013076;28;20218;-68
2021/12/18 12:34:44;;;;;;;1.60;1.50;;;0.40;99.90;;;;;;5012800;28;20203;-68
2021/12/18 12:37:32;;;;;;;0.80;0.80;;;0.40;99.90;;;;;;5012905;28;20214;-68
2021/12/18 12:40:28;;;;;;;1.35;1.25;;;0.50;99.90;;;;;;5011762;28;20306;-68
2021/12/18 12:43:23;;;;;;;3.90;2.25;;;0.50;99.90;;;;;;5012521;28;20670;-68
2021/12/18 12:45:52;;;;;;;4.28;1.40;;;0.50;99.90;;;;;;4994066;28;20291;-68
2021/12/18 12:48:20;;;;;;;0.70;0.70;;;0.40;99.90;;;;;;4994901;28;20598;-69
2021/12/18 12:50:57;;;;;;;0.73;0.73;;;0.50;99.90;;;;;;5011531;28;20249;-69
2021/12/18 12:53:52;;;;;;;0.70;0.70;;;0.50;99.90;;;;;;4994227;28;20551;-68
2021/12/18 12:56:20;;;;;;;0.60;0.60;;;0.60;99.90;;;;;;4999340;28;20215;-69
2021/12/18 12:58:48;;;;;;;0.70;0.70;;;0.60;99.90;;;;;;5012552;28;20309;-69
2021/12/18 13:01:13;;;;;;;0.82;0.82;;;0.70;99.90;;;;;;5012380;28;20210;-70
2021/12/18 13:03:48;;;;;;;0.70;0.70;;;0.80;99.90;;;;;;5012628;28;20203;-68
2021/12/18 13:06:22;;;;;;;1.58;1.27;;;0.80;99.90;;;;;;4995505;28;20195;-69
2021/12/18 13:08:50;;;;;;;0.70;0.70;;;0.90;99.90;;;;;;4995492;28;20713;-69
2021/12/18 13:11:24;;;;;;;0.70;0.70;;;0.90;99.90;;;;;;5011060;28;20222;-68
2021/12/18 13:13:52;;;;;;;0.63;0.63;;;1.00;99.90;;;;;;5010849;28;20230;-68
2021/12/18 13:16:21;;;;;;;0.70;0.70;;;1.00;99.90;;;;;;5011916;28;20231;-68
2021/12/18 13:18:56;;;;;;;0.60;0.60;;;1.00;99.90;;;;;;5012365;28;20245;-68
2021/12/18 13:21:32;;;;;;;1.27;1.17;;;1.10;99.90;;;;;;5010909;28;20198;-68
2021/12/18 13:24:06;;;;;;;0.70;0.70;;;1.10;99.90;;;;;;5011383;28;20203;-68
2021/12/18 13:26:41;;;;;;;1.50;1.33;;;1.30;99.90;;;;;;5011532;28;20253;-68
2021/12/18 13:29:17;;;;;;;0.70;0.70;;;1.40;99.90;;;;;;5010922;28;20222;-68
2021/12/18 13:31:56;;;;;;;0.70;0.70;;;1.40;99.90;;;;;;5011148;28;20206;-68
2021/12/18 13:34:28;;;;;;;0.60;0.60;;;1.30;99.90;;;;;;5010215;28;20198;-68
2021/12/18 13:36:59;;;;;;;0.70;0.70;;;1.40;99.90;;;;;;5007409;28;20266;-71
2021/12/18 13:39:31;;;;;;;0.70;0.70;;;1.30;99.90;;;;;;5011747;28;20233;-68
2021/12/18 13:42:05;;;;;;;0.60;0.60;;;1.30;99.90;;;;;;5011718;28;20233;-68
2021/12/18 13:44:52;;;;;;;0.70;0.70;;;1.20;99.90;;;;;;5009510;28;20293;-68